createdAt,value
2022-12-31T00:01:10.420Z,12.93
2022-12-31T00:03:38.909Z,12.88
2022-12-31T00:06:16.242Z,11.50
2022-12-31T00:08:45.234Z,10.68
2022-12-31T00:11:13.289Z,10.95
2022-12-31T00:13:40.750Z,10.35
2022-12-31T00:16:17.594Z,11.82
2022-12-31T00:18:47.028Z,10.73
2022-12-31T00:21:18.242Z,11.75
2022-12-31T00:23:46.101Z,11.65
2022-12-31T00:26:21.406Z,11.98
2022-12-31T00:28:49.419Z,13.35
2022-12-31T00:31:22.253Z,14.10
2022-12-31T00:33:51.136Z,13.38
2022-12-31T00:36:21.481Z,13.18
2022-12-31T00:38:51.741Z,12.93
2022-12-31T00:41:20.538Z,12.80
2022-12-31T00:43:48.860Z,12.68
2022-12-31T00:46:18.309Z,10.23
2022-12-31T00:48:46.209Z,11.45
2022-12-31T00:51:16.589Z,9.65
2022-12-31T00:53:45.144Z,10.15
2022-12-31T00:56:24.182Z,10.40
2022-12-31T00:58:51.728Z,9.63
2022-12-31T01:01:34.681Z,10.48
2022-12-31T01:04:14.145Z,11.82
2022-12-31T01:06:42.874Z,10.65
2022-12-31T01:09:12.960Z,10.48
2022-12-31T01:11:41.464Z,10.85
2022-12-31T01:14:15.361Z,13.13
2022-12-31T01:16:51.505Z,13.15
2022-12-31T01:19:22.061Z,13.63
2022-12-31T01:21:53.618Z,11.73
2022-12-31T01:24:23.621Z,11.13
2022-12-31T01:26:51.921Z,10.43
2022-12-31T01:29:19.406Z,10.57
2022-12-31T01:31:46.980Z,11.13
2022-12-31T01:34:14.131Z,10.20
2022-12-31T01:36:41.782Z,9.52
2022-12-31T01:39:10.989Z,9.73
2022-12-31T01:41:42.903Z,8.90
2022-12-31T01:44:28.761Z,8.05
2022-12-31T01:47:00.731Z,8.88
2022-12-31T01:49:31.429Z,9.68
2022-12-31T01:52:02.149Z,9.88
2022-12-31T01:54:32.385Z,10.40
2022-12-31T01:57:00.593Z,9.75
2022-12-31T01:59:32.320Z,10.80
2022-12-31T02:02:01.597Z,9.93
2022-12-31T02:04:30.158Z,10.77
2022-12-31T02:07:01.334Z,12.48
2022-12-31T02:09:30.687Z,12.02
2022-12-31T02:11:58.161Z,11.43
2022-12-31T02:14:25.334Z,15.50
2022-12-31T02:16:56.695Z,13.88
2022-12-31T02:19:56.310Z,12.07
2022-12-31T02:22:47.224Z,9.02
2022-12-31T02:25:23.456Z,8.95
2022-12-31T02:28:13.054Z,8.82
2022-12-31T02:30:41.901Z,9.48
2022-12-31T02:33:10.311Z,7.97
2022-12-31T02:35:51.748Z,8.05
2022-12-31T02:38:50.087Z,7.65
2022-12-31T02:41:38.086Z,8.00
2022-12-31T02:44:29.206Z,7.63
2022-12-31T02:47:27.453Z,6.90
2022-12-31T02:50:10.439Z,6.55
2022-12-31T02:53:07.337Z,7.90
2022-12-31T02:55:50.096Z,6.97
2022-12-31T02:58:51.546Z,8.55
2022-12-31T03:01:49.216Z,7.53
2022-12-31T03:04:33.433Z,6.85
2022-12-31T03:07:02.312Z,7.18
2022-12-31T03:09:29.681Z,8.13
2022-12-31T03:12:15.543Z,11.27
2022-12-31T03:14:43.437Z,9.15
2022-12-31T03:17:11.136Z,8.27
2022-12-31T03:19:57.939Z,8.45
2022-12-31T03:22:28.610Z,7.00
2022-12-31T03:25:24.259Z,8.65
2022-12-31T03:27:54.080Z,7.93
2022-12-31T03:30:23.643Z,7.90
2022-12-31T03:32:51.488Z,7.78
2022-12-31T03:35:21.580Z,9.52
2022-12-31T03:37:51.916Z,10.73
2022-12-31T03:40:21.916Z,9.00
2022-12-31T03:42:50.483Z,8.40
2022-12-31T03:45:20.219Z,7.57
2022-12-31T03:47:48.385Z,7.10
2022-12-31T03:50:19.088Z,5.95
2022-12-31T03:52:48.114Z,7.03
2022-12-31T03:55:15.874Z,6.80
2022-12-31T03:57:45.589Z,5.93
2022-12-31T04:00:18.208Z,5.20
2022-12-31T04:02:47.499Z,6.50
2022-12-31T04:05:17.347Z,10.68
2022-12-31T04:07:45.520Z,7.80
2022-12-31T04:10:14.940Z,7.55
2022-12-31T04:12:43.352Z,6.70
2022-12-31T04:15:16.296Z,8.30
2022-12-31T04:17:47.062Z,9.43
2022-12-31T04:20:15.471Z,8.43
2022-12-31T04:22:44.289Z,7.72
2022-12-31T04:25:13.550Z,14.18
2022-12-31T04:27:43.876Z,9.40
2022-12-31T04:30:13.459Z,9.10
2022-12-31T04:32:41.505Z,8.88
2022-12-31T04:35:09.878Z,7.93
2022-12-31T04:37:37.901Z,7.60
2022-12-31T04:40:08.236Z,7.68
2022-12-31T04:42:36.610Z,9.05
2022-12-31T04:45:04.641Z,13.15
2022-12-31T04:47:32.109Z,12.48
2022-12-31T04:49:59.246Z,26.40
2022-12-31T04:52:26.665Z,23.65
2022-12-31T04:54:54.386Z,11.55
2022-12-31T04:57:22.070Z,16.85
2022-12-31T04:59:49.177Z,25.63
2022-12-31T05:02:16.878Z,15.07
2022-12-31T05:04:44.191Z,17.55
2022-12-31T05:07:11.849Z,7.65
2022-12-31T05:09:39.051Z,10.98
2022-12-31T05:12:06.698Z,8.48
2022-12-31T05:14:34.062Z,15.27
2022-12-31T05:17:01.570Z,21.65
2022-12-31T05:19:28.783Z,11.60
2022-12-31T05:22:14.674Z,12.20
2022-12-31T05:24:41.921Z,16.35
2022-12-31T05:27:09.559Z,13.07
2022-12-31T05:29:39.031Z,14.07
2022-12-31T05:32:06.404Z,10.95
2022-12-31T05:34:33.508Z,8.55
2022-12-31T05:37:02.048Z,9.93
2022-12-31T05:39:29.245Z,8.50
2022-12-31T05:41:56.884Z,11.25
2022-12-31T05:44:24.108Z,13.27
2022-12-31T05:46:51.655Z,17.48
2022-12-31T05:49:20.362Z,16.38
2022-12-31T05:51:51.670Z,14.50
2022-12-31T05:54:18.906Z,15.50
2022-12-31T05:56:47.543Z,13.95
2022-12-31T05:59:14.820Z,10.90
2022-12-31T06:01:42.514Z,11.90
2022-12-31T06:04:10.107Z,8.75
2022-12-31T06:06:37.553Z,10.13
2022-12-31T06:09:04.860Z,10.43
2022-12-31T06:11:33.402Z,8.68
2022-12-31T06:14:01.611Z,8.48
2022-12-31T06:16:32.055Z,9.32
2022-12-31T06:19:01.638Z,9.18
2022-12-31T06:21:29.889Z,10.80
2022-12-31T06:23:57.319Z,7.95
2022-12-31T06:26:27.025Z,14.45
2022-12-31T06:28:56.816Z,16.70
2022-12-31T06:31:24.273Z,17.60
2022-12-31T06:33:52.895Z,10.55
2022-12-31T06:36:22.009Z,12.68
2022-12-31T06:38:49.468Z,12.30
2022-12-31T06:41:18.950Z,12.15
2022-12-31T06:43:46.515Z,12.15
2022-12-31T06:46:17.027Z,12.00
2022-12-31T06:48:47.634Z,10.38
2022-12-31T06:51:18.544Z,18.65
2022-12-31T06:53:47.512Z,16.85
2022-12-31T06:56:19.017Z,18.98
2022-12-31T06:58:46.445Z,12.75
2022-12-31T07:01:46.674Z,24.25
2022-12-31T07:04:32.450Z,19.45
2022-12-31T07:07:21.297Z,13.07
2022-12-31T07:10:33.743Z,14.85
2022-12-31T07:13:12.336Z,20.02
2022-12-31T07:16:01.433Z,19.90
2022-12-31T07:18:56.308Z,20.02
2022-12-31T07:21:35.180Z,15.73
2022-12-31T07:24:09.914Z,24.00
2022-12-31T07:26:55.939Z,14.50
2022-12-31T07:30:19.409Z,19.83
2022-12-31T07:33:03.538Z,20.77
2022-12-31T07:35:45.201Z,24.45
2022-12-31T07:38:17.683Z,42.33
2022-12-31T07:41:11.506Z,80.45
2022-12-31T07:43:50.896Z,19.52
2022-12-31T07:46:35.933Z,17.73
2022-12-31T07:49:04.643Z,16.77
2022-12-31T07:51:32.321Z,26.90
2022-12-31T07:53:59.747Z,20.23
2022-12-31T07:56:27.030Z,19.58
2022-12-31T07:59:30.792Z,18.30
2022-12-31T08:02:08.574Z,20.10
2022-12-31T08:04:48.448Z,17.77
2022-12-31T08:07:36.970Z,18.17
2022-12-31T08:10:18.179Z,17.85
2022-12-31T08:12:50.774Z,18.38
2022-12-31T08:15:20.595Z,33.58
2022-12-31T08:17:51.994Z,27.70
2022-12-31T08:20:20.247Z,36.97
2022-12-31T08:23:16.408Z,39.60
2022-12-31T08:26:07.350Z,31.50
2022-12-31T08:29:03.007Z,25.38
2022-12-31T08:31:36.748Z,25.08
2022-12-31T08:34:27.034Z,37.70
2022-12-31T08:37:04.855Z,31.15
2022-12-31T08:39:53.867Z,27.08
2022-12-31T08:42:21.415Z,68.78
2022-12-31T08:45:17.182Z,28.75
2022-12-31T08:47:48.560Z,57.33
2022-12-31T08:50:20.478Z,94.93
2022-12-31T08:52:50.055Z,65.95
2022-12-31T08:55:19.553Z,80.40
2022-12-31T08:58:11.634Z,78.25
2022-12-31T09:00:41.949Z,77.55
2022-12-31T09:03:36.497Z,64.20
2022-12-31T09:06:16.630Z,54.08
2022-12-31T09:08:47.794Z,49.72
2022-12-31T09:11:44.427Z,46.45
2022-12-31T09:14:21.190Z,45.80
2022-12-31T09:16:57.538Z,44.80
2022-12-31T09:19:25.312Z,46.88
2022-12-31T09:21:54.949Z,45.90
2022-12-31T09:24:22.749Z,41.60
2022-12-31T09:27:04.667Z,37.70
2022-12-31T09:30:03.042Z,41.60
2022-12-31T09:33:07.992Z,43.13
2022-12-31T09:35:50.285Z,49.53
2022-12-31T09:38:28.847Z,57.33
2022-12-31T09:41:00.221Z,60.20
2022-12-31T09:44:28.705Z,61.97
2022-12-31T09:47:38.679Z,69.70
2022-12-31T09:50:35.584Z,69.13
2022-12-31T09:53:24.888Z,58.05
2022-12-31T09:55:55.440Z,56.38
2022-12-31T09:58:59.770Z,51.38
2022-12-31T10:01:50.084Z,51.80
2022-12-31T10:04:44.090Z,55.67
2022-12-31T10:07:33.171Z,60.28
2022-12-31T10:10:09.595Z,63.58
2022-12-31T10:12:51.372Z,69.60
2022-12-31T10:15:31.295Z,63.67
2022-12-31T10:18:32.322Z,59.83
2022-12-31T10:21:26.844Z,57.20
2022-12-31T10:24:32.808Z,51.17
2022-12-31T10:29:43.097Z,19.83
2022-12-31T10:32:19.411Z,20.20
2022-12-31T10:34:59.134Z,15.85
2022-12-31T10:37:43.745Z,14.02
2022-12-31T10:43:03.150Z,19.92
2022-12-31T10:45:52.391Z,13.88
2022-12-31T10:48:45.084Z,57.97
2022-12-31T10:51:24.850Z,12.05
2022-12-31T10:54:13.144Z,10.38
2022-12-31T10:57:01.286Z,11.80
2022-12-31T10:59:43.473Z,12.30
2022-12-31T11:02:14.198Z,12.88
2022-12-31T11:04:47.819Z,10.48
2022-12-31T11:07:34.134Z,14.40
2022-12-31T11:10:26.263Z,15.32
2022-12-31T11:13:10.818Z,11.77
2022-12-31T11:15:57.762Z,38.10
2022-12-31T11:18:53.951Z,10.95
2022-12-31T11:21:28.647Z,35.25
2022-12-31T11:24:25.886Z,56.50
2022-12-31T11:27:36.388Z,50.30
2022-12-31T11:30:54.529Z,61.58
2022-12-31T11:33:50.023Z,58.58
2022-12-31T11:36:48.286Z,54.65
2022-12-31T11:39:25.840Z,44.28
2022-12-31T11:42:19.441Z,41.97
2022-12-31T11:45:01.271Z,39.15
2022-12-31T11:51:32.149Z,41.70
2022-12-31T11:54:21.410Z,50.28
2022-12-31T11:57:00.288Z,47.60
2022-12-31T11:59:27.689Z,51.13
2022-12-31T12:02:16.581Z,57.67
2022-12-31T12:04:48.709Z,55.80
2022-12-31T12:07:16.820Z,49.53
2022-12-31T12:09:45.629Z,45.95
2022-12-31T12:12:13.219Z,48.33
2022-12-31T12:14:43.094Z,40.47
2022-12-31T12:17:16.795Z,46.15
2022-12-31T12:22:21.846Z,40.95
2022-12-31T12:25:06.223Z,33.58
2022-12-31T12:27:35.854Z,54.43
2022-12-31T12:30:10.659Z,48.58
2022-12-31T12:32:38.026Z,40.40
2022-12-31T12:35:17.378Z,52.35
2022-12-31T12:37:44.505Z,59.42
2022-12-31T12:40:24.056Z,70.22
2022-12-31T12:42:59.567Z,61.15
2022-12-31T12:46:46.095Z,53.53
2022-12-31T12:49:26.004Z,26.02
2022-12-31T12:52:26.541Z,14.13
2022-12-31T12:55:06.541Z,10.18
2022-12-31T12:57:57.517Z,42.60
2022-12-31T13:01:08.601Z,31.98
2022-12-31T13:07:24.896Z,33.67
2022-12-31T13:10:23.136Z,33.70
2022-12-31T13:13:25.789Z,22.52
2022-12-31T13:16:05.817Z,12.23
2022-12-31T13:18:48.062Z,7.07
2022-12-31T13:21:57.106Z,6.40
2022-12-31T13:24:48.287Z,13.00
2022-12-31T13:27:33.880Z,13.88
2022-12-31T13:30:17.342Z,12.68
2022-12-31T13:33:13.347Z,13.23
2022-12-31T13:35:49.172Z,11.38
2022-12-31T13:38:39.633Z,7.35
2022-12-31T13:41:17.614Z,8.20
2022-12-31T13:43:58.940Z,11.88
2022-12-31T13:46:44.316Z,14.77
2022-12-31T13:49:24.412Z,11.70
2022-12-31T13:52:02.464Z,13.18
2022-12-31T13:54:52.567Z,12.18
2022-12-31T13:57:45.609Z,9.45
2022-12-31T14:00:25.113Z,9.18
2022-12-31T14:03:00.755Z,8.88
2022-12-31T14:05:46.881Z,8.98
2022-12-31T14:08:14.514Z,8.20
2022-12-31T14:10:45.030Z,9.05
2022-12-31T14:13:32.516Z,11.05
2022-12-31T14:16:11.676Z,7.90
2022-12-31T14:19:14.114Z,9.65
2022-12-31T14:22:01.066Z,18.77
2022-12-31T14:24:40.509Z,16.77
2022-12-31T14:27:17.210Z,18.80
2022-12-31T14:30:18.274Z,19.17
2022-12-31T14:33:04.965Z,22.30
2022-12-31T14:35:56.884Z,21.20
2022-12-31T14:38:39.438Z,22.35
2022-12-31T14:41:22.624Z,19.58
2022-12-31T14:44:21.881Z,15.65
2022-12-31T14:47:14.709Z,13.82
2022-12-31T14:49:48.079Z,9.10
2022-12-31T14:52:46.990Z,13.00
2022-12-31T14:55:17.127Z,15.98
2022-12-31T14:58:26.013Z,21.38
2022-12-31T15:00:38.795Z,25.27
2022-12-31T15:03:24.517Z,28.05
2022-12-31T15:05:59.230Z,99.97
2022-12-31T15:11:23.894Z,61.22
2022-12-31T15:14:12.478Z,41.33
2022-12-31T15:16:50.727Z,49.83
2022-12-31T15:19:43.747Z,144.60
2022-12-31T15:22:49.858Z,45.97
2022-12-31T15:25:41.132Z,42.80
2022-12-31T15:28:39.779Z,57.88
2022-12-31T15:31:18.871Z,62.70
2022-12-31T15:34:04.236Z,62.95
2022-12-31T15:36:39.012Z,106.22
2022-12-31T15:39:25.626Z,79.63
2022-12-31T15:42:36.172Z,79.97
2022-12-31T15:45:04.718Z,73.10
2022-12-31T15:47:46.455Z,67.90
2022-12-31T15:50:19.043Z,71.82
2022-12-31T15:52:56.636Z,50.75
2022-12-31T15:55:41.801Z,51.97
2022-12-31T15:58:16.934Z,54.22
2022-12-31T16:01:05.886Z,50.53
2022-12-31T16:03:33.907Z,44.85
2022-12-31T16:06:04.471Z,47.88
2022-12-31T16:08:36.112Z,69.57
2022-12-31T16:11:05.986Z,122.57
2022-12-31T16:13:36.978Z,84.45
2022-12-31T16:16:19.602Z,85.38
2022-12-31T16:18:46.878Z,89.93
2022-12-31T16:21:36.666Z,104.93
2022-12-31T16:24:26.629Z,102.63
2022-12-31T16:26:59.981Z,94.88
2022-12-31T16:29:27.637Z,115.00
2022-12-31T16:31:55.258Z,112.30
2022-12-31T16:34:25.082Z,135.23
2022-12-31T16:36:57.530Z,244.88
2022-12-31T16:39:38.339Z,95.60
2022-12-31T16:42:14.961Z,81.47
2022-12-31T16:44:42.513Z,89.97
2022-12-31T16:47:27.577Z,126.75
2022-12-31T16:50:20.519Z,98.00
2022-12-31T16:52:57.947Z,85.78
2022-12-31T16:55:28.923Z,78.25
2022-12-31T16:58:08.197Z,67.75
2022-12-31T17:00:36.961Z,60.90
2022-12-31T17:03:28.116Z,74.32
2022-12-31T17:06:54.241Z,61.22
2022-12-31T17:09:39.001Z,108.57
2022-12-31T17:12:18.218Z,100.20
2022-12-31T17:15:04.913Z,105.47
2022-12-31T17:17:37.647Z,248.55
2022-12-31T17:20:23.148Z,124.35
2022-12-31T17:22:56.954Z,71.35
2022-12-31T17:25:31.699Z,96.28
2022-12-31T17:28:03.298Z,279.40
2022-12-31T17:30:31.516Z,130.98
2022-12-31T17:33:01.159Z,132.88
2022-12-31T17:35:33.061Z,342.10
2022-12-31T17:38:21.648Z,255.32
2022-12-31T17:41:22.303Z,85.22
2022-12-31T17:43:54.414Z,68.28
2022-12-31T17:46:25.763Z,54.38
2022-12-31T17:49:02.506Z,84.00
2022-12-31T17:51:30.102Z,75.25
2022-12-31T17:54:00.438Z,129.70
2022-12-31T17:56:53.095Z,139.68
2022-12-31T17:59:29.794Z,109.05
2022-12-31T18:02:03.444Z,85.85
2022-12-31T18:04:31.001Z,113.43
2022-12-31T18:06:58.561Z,166.75
2022-12-31T18:09:25.693Z,155.55
2022-12-31T18:11:55.637Z,131.38
2022-12-31T18:14:26.899Z,118.00
2022-12-31T18:16:54.647Z,89.72
2022-12-31T18:19:46.196Z,121.70
2022-12-31T18:22:16.168Z,108.97
2022-12-31T18:24:44.435Z,76.97
2022-12-31T18:27:17.294Z,69.07
2022-12-31T18:29:45.717Z,71.43
2022-12-31T18:32:34.353Z,70.13
2022-12-31T18:35:03.230Z,87.18
2022-12-31T18:37:32.705Z,84.85
2022-12-31T18:40:00.896Z,84.25
2022-12-31T18:42:33.587Z,84.20
2022-12-31T18:45:01.633Z,83.13
2022-12-31T18:47:37.289Z,80.25
2022-12-31T18:50:06.929Z,88.15
2022-12-31T18:52:34.425Z,75.25
2022-12-31T18:55:02.723Z,73.43
2022-12-31T18:57:30.229Z,92.38
2022-12-31T18:59:57.624Z,62.72
2022-12-31T19:02:25.655Z,63.67
2022-12-31T19:04:54.450Z,63.38
2022-12-31T19:07:23.363Z,67.45
2022-12-31T19:09:58.477Z,56.97
2022-12-31T19:12:26.400Z,60.17
2022-12-31T19:14:53.557Z,56.67
2022-12-31T19:17:21.801Z,55.58
2022-12-31T19:19:48.923Z,68.28
2022-12-31T19:22:16.401Z,61.00
2022-12-31T19:24:44.569Z,52.65
2022-12-31T19:27:13.500Z,54.70
2022-12-31T19:29:40.728Z,78.50
2022-12-31T19:32:08.235Z,55.70
2022-12-31T19:34:35.440Z,118.05
2022-12-31T19:37:02.896Z,79.18
2022-12-31T19:39:30.053Z,62.05
2022-12-31T19:41:59.917Z,59.03
2022-12-31T19:44:30.125Z,109.95
2022-12-31T19:46:58.826Z,58.80
2022-12-31T19:49:25.965Z,56.50
2022-12-31T19:51:53.992Z,111.63
2022-12-31T19:54:22.254Z,106.22
2022-12-31T19:56:50.703Z,115.20
2022-12-31T19:59:17.829Z,99.55
2022-12-31T20:01:49.850Z,114.13
2022-12-31T20:04:18.635Z,78.85
2022-12-31T20:06:49.621Z,100.65
2022-12-31T20:09:19.130Z,71.40
2022-12-31T20:11:46.905Z,70.38
2022-12-31T20:14:14.040Z,65.97
2022-12-31T20:16:41.700Z,84.82
2022-12-31T20:19:10.576Z,109.80
2022-12-31T20:21:39.250Z,122.03
2022-12-31T20:24:08.055Z,157.27
2022-12-31T20:26:36.412Z,111.45
2022-12-31T20:29:03.603Z,125.03
2022-12-31T20:31:31.188Z,236.80
2022-12-31T20:33:58.424Z,96.93
2022-12-31T20:36:26.693Z,108.40
2022-12-31T20:38:54.949Z,94.43
2022-12-31T20:41:23.161Z,151.30
2022-12-31T20:43:51.027Z,116.95
2022-12-31T20:46:24.932Z,124.45
2022-12-31T20:48:55.244Z,82.38
2022-12-31T20:51:23.579Z,153.95
2022-12-31T20:53:55.167Z,94.25
2022-12-31T20:56:25.000Z,94.03
2022-12-31T20:58:52.176Z,64.68
2022-12-31T21:01:20.036Z,94.95
2022-12-31T21:04:06.019Z,51.45
2022-12-31T21:06:35.611Z,65.15
2022-12-31T21:09:05.221Z,67.70
2022-12-31T21:11:51.254Z,53.50
2022-12-31T21:14:18.463Z,51.35
2022-12-31T21:16:45.986Z,55.60
2022-12-31T21:19:13.142Z,60.72
2022-12-31T21:21:40.901Z,55.95
2022-12-31T21:24:08.612Z,55.30
2022-12-31T21:26:36.076Z,49.53
2022-12-31T21:29:03.342Z,48.08
2022-12-31T21:31:30.847Z,48.17
2022-12-31T21:33:58.019Z,51.75
2022-12-31T21:36:25.488Z,55.45
2022-12-31T21:38:52.693Z,55.90
2022-12-31T21:41:38.986Z,53.30
2022-12-31T21:44:06.872Z,56.17
2022-12-31T21:46:34.386Z,74.03
2022-12-31T21:49:01.695Z,60.03
2022-12-31T21:51:30.624Z,45.13
2022-12-31T21:53:57.903Z,43.80
2022-12-31T21:56:25.443Z,43.42
2022-12-31T21:59:16.713Z,37.47
2022-12-31T22:02:03.155Z,37.05
2022-12-31T22:07:18.430Z,48.20
2022-12-31T22:09:46.949Z,62.67
2022-12-31T22:12:14.402Z,41.05
2022-12-31T22:15:15.586Z,41.83
2022-12-31T22:17:28.979Z,45.45
2022-12-31T22:22:43.937Z,56.72
2022-12-31T22:25:11.200Z,49.83
2022-12-31T22:27:39.164Z,52.13
2022-12-31T22:30:07.343Z,45.13
2022-12-31T22:32:34.837Z,47.33
2022-12-31T22:35:02.099Z,51.00
2022-12-31T22:37:56.476Z,32.05
2022-12-31T22:40:17.670Z,28.58
2022-12-31T22:42:45.674Z,33.60
2022-12-31T22:45:12.929Z,28.20
2022-12-31T22:47:40.419Z,30.52
2022-12-31T22:50:08.044Z,58.03
2022-12-31T22:52:35.523Z,58.25
2022-12-31T22:55:02.856Z,44.58
2022-12-31T22:57:31.988Z,26.40
2022-12-31T23:00:03.787Z,41.42
2022-12-31T23:02:39.848Z,26.80
2022-12-31T23:05:15.829Z,28.17
2022-12-31T23:07:43.975Z,49.95
2022-12-31T23:10:29.683Z,57.35
2022-12-31T23:12:59.087Z,50.00
2022-12-31T23:15:44.762Z,46.35
2022-12-31T23:18:30.581Z,45.90
2022-12-31T23:21:16.253Z,45.88
2022-12-31T23:23:43.782Z,47.22
2022-12-31T23:26:10.926Z,67.93
2022-12-31T23:28:38.345Z,50.22
2022-12-31T23:31:06.669Z,55.67
2022-12-31T23:33:35.461Z,60.28
2022-12-31T23:36:06.179Z,66.60
2022-12-31T23:38:33.994Z,68.75
2022-12-31T23:41:01.412Z,66.53
2022-12-31T23:43:29.137Z,72.90
2022-12-31T23:45:57.743Z,70.60
2022-12-31T23:48:25.453Z,69.85
2022-12-31T23:50:54.258Z,68.53
2022-12-31T23:53:25.177Z,90.85
2022-12-31T23:55:53.356Z,83.43
2022-12-31T23:58:21.317Z,83.03
